Airfield :
LOGIN :

Register | Disclaimer

   EN    FR    IT 

 










Legend :    VFR   Marginal VFR   IFR   Intensive IFR   Very Intensive IFR
Visi :
Ceiling :
>= 8 km
>= 3000ft
5 to 8 km
1000 to 3000 ft
1500m to 5 km
500 to 1000 ft
800 to 1500m
200 to 500 ft
< 800m
< 200 ft
Symbols :   Thunderstorms  Fog  Heavy snow  Heavy precipitations  Wind > 20 kt
SIGMETs :     Misc.  Thunderstorms  Icing  Turbulence  Mountain Waves  Volcanic Ashes







- Airport Elevation : 3006 ft
- IATA code : LEN


LELN - Leon

CURRENT METAR :
  • 251800Z 01008KT 340V050 9999 BKN045 11/05 Q1008

EXPIRED METARs :
  • 251700Z 02009KT 350V050 9999 BKN040TCU 12/05 Q1007
  • 251600Z 01009KT 330V050 9999 BKN045TCU 13/06 Q1007

TAF TAF LELN
Valid from the 25 at 18:00 until the 26 at 03:00 UTC


251700Z 2518/2603 01013KT 9999 BKN040
No reported NOTAMs for that airfield.
3 SIGMETs reported for the Madrid FIR (LECM) :
 
Embedded thunderstorms
LECM SIGMET 12 VALID 251800/252000 LEVA
LECM MADRID FIR/UIR EMBD TS OBS AT 1733Z E OF LINE N4120 W00450 - N3710 W002 TOP FL340 MOV NE NC=
Embedded thunderstorms
LECM SIGMET 11 VALID 251637/251800 LEVA
LECM MADRID FIR/UIR EMBD TS OBS AT 1616Z WI N4120 W004 - N4020 W00320 - N3940 W005 - N4050 W00550 TOP FL340 MOV NE NC=
Embedded thunderstorms
LECM SIGMET 10 VALID 251600/251800 LEVA
LECM MADRID FIR/UIR EMBD TS OBS AT 1538Z E OF LINE N4310 W00410 - N3730 W00230 TOP FL340 MOV NE NC=



MET'MAP, your aeronautical weather chart ! - Copyright ORBIFLY December 2007 - Disclaimer

ORBIFLY MET'MAP TEAM :

Programming & Development : Alexandra Zaïnal
Concept & Development : Baudouin d'Aumeries
Co-Development & Prog : Marc-Olivier Méhu
Technical & hardware support : Manuel Goepfert

Contact : metmap@orbifly.com




SOURCES & CREDITS :

   NOAA